sensor_id;sensor_type;location;lat;lon;timestamp;P1;durP1;ratioP1;P2;durP2;ratioP2
3167;SDS011;37221;51.548;6.984;2022-07-06T00:00:52;2.30;;;1.90;;
3167;SDS011;37221;51.548;6.984;2022-07-06T00:03:18;3.00;;;2.57;;
3167;SDS011;37221;51.548;6.984;2022-07-06T00:05:43;3.60;;;2.17;;
3167;SDS011;37221;51.548;6.984;2022-07-06T00:08:09;3.77;;;1.63;;
3167;SDS011;37221;51.548;6.984;2022-07-06T00:10:35;2.73;;;2.20;;
3167;SDS011;37221;51.548;6.984;2022-07-06T00:13:00;3.60;;;2.60;;
3167;SDS011;37221;51.548;6.984;2022-07-06T00:15:26;2.37;;;2.17;;
3167;SDS011;37221;51.548;6.984;2022-07-06T00:17:51;3.47;;;2.47;;
3167;SDS011;37221;51.548;6.984;2022-07-06T00:20:17;2.13;;;1.93;;
3167;SDS011;37221;51.548;6.984;2022-07-06T00:22:43;2.93;;;2.10;;
3167;SDS011;37221;51.548;6.984;2022-07-06T00:25:08;2.50;;;2.30;;
3167;SDS011;37221;51.548;6.984;2022-07-06T00:27:34;2.73;;;2.43;;
3167;SDS011;37221;51.548;6.984;2022-07-06T00:30:00;7.03;;;2.07;;
3167;SDS011;37221;51.548;6.984;2022-07-06T00:32:25;3.30;;;2.87;;
3167;SDS011;37221;51.548;6.984;2022-07-06T00:34:52;2.73;;;2.17;;
3167;SDS011;37221;51.548;6.984;2022-07-06T00:37:18;2.70;;;2.43;;
3167;SDS011;37221;51.548;6.984;2022-07-06T00:39:43;2.50;;;1.73;;
3167;SDS011;37221;51.548;6.984;2022-07-06T00:42:09;4.00;;;1.97;;
3167;SDS011;37221;51.548;6.984;2022-07-06T00:44:35;3.07;;;2.60;;
3167;SDS011;37221;51.548;6.984;2022-07-06T00:47:00;6.07;;;2.70;;
3167;SDS011;37221;51.548;6.984;2022-07-06T00:49:27;7.33;;;1.97;;
3167;SDS011;37221;51.548;6.984;2022-07-06T00:52:11;2.13;;;1.63;;
3167;SDS011;37221;51.548;6.984;2022-07-06T00:54:37;1.83;;;1.73;;
3167;SDS011;37221;51.548;6.984;2022-07-06T00:57:07;3.00;;;2.57;;
3167;SDS011;37221;51.548;6.984;2022-07-06T00:59:34;2.00;;;1.83;;
3167;SDS011;37221;51.548;6.984;2022-07-06T01:02:00;2.27;;;2.00;;
3167;SDS011;37221;51.548;6.984;2022-07-06T01:04:26;3.13;;;2.40;;
3167;SDS011;37221;51.548;6.984;2022-07-06T01:06:53;3.10;;;2.23;;
3167;SDS011;37221;51.548;6.984;2022-07-06T01:09:20;2.40;;;2.10;;
3167;SDS011;37221;51.548;6.984;2022-07-06T01:11:46;3.07;;;2.47;;
3167;SDS011;37221;51.548;6.984;2022-07-06T01:14:14;2.30;;;2.07;;
3167;SDS011;37221;51.548;6.984;2022-07-06T01:16:40;3.30;;;1.90;;
3167;SDS011;37221;51.548;6.984;2022-07-06T01:19:06;2.50;;;2.30;;
3167;SDS011;37221;51.548;6.984;2022-07-06T01:21:32;2.43;;;1.97;;
3167;SDS011;37221;51.548;6.984;2022-07-06T01:23:57;3.67;;;2.50;;
3167;SDS011;37221;51.548;6.984;2022-07-06T01:26:23;5.00;;;2.03;;
3167;SDS011;37221;51.548;6.984;2022-07-06T01:28:50;3.43;;;2.60;;
3167;SDS011;37221;51.548;6.984;2022-07-06T01:31:18;3.60;;;1.83;;
3167;SDS011;37221;51.548;6.984;2022-07-06T01:33:49;2.17;;;1.80;;
3167;SDS011;37221;51.548;6.984;2022-07-06T01:36:20;4.30;;;1.73;;
3167;SDS011;37221;51.548;6.984;2022-07-06T01:38:53;2.23;;;2.03;;
3167;SDS011;37221;51.548;6.984;2022-07-06T01:41:24;3.23;;;1.80;;
3167;SDS011;37221;51.548;6.984;2022-07-06T01:43:50;2.20;;;2.00;;
3167;SDS011;37221;51.548;6.984;2022-07-06T01:46:16;1.77;;;1.57;;
3167;SDS011;37221;51.548;6.984;2022-07-06T01:48:44;2.43;;;2.23;;
3167;SDS011;37221;51.548;6.984;2022-07-06T01:51:11;2.53;;;2.03;;
3167;SDS011;37221;51.548;6.984;2022-07-06T01:53:37;2.47;;;2.03;;
3167;SDS011;37221;51.548;6.984;2022-07-06T01:56:03;2.17;;;1.70;;
3167;SDS011;37221;51.548;6.984;2022-07-06T01:58:29;6.47;;;2.67;;
3167;SDS011;37221;51.548;6.984;2022-07-06T02:04:15;2.10;;;1.60;;
3167;SDS011;37221;51.548;6.984;2022-07-06T02:06:41;2.50;;;2.13;;
3167;SDS011;37221;51.548;6.984;2022-07-06T02:09:07;1.67;;;1.57;;
3167;SDS011;37221;51.548;6.984;2022-07-06T02:11:32;2.07;;;1.87;;
3167;SDS011;37221;51.548;6.984;2022-07-06T02:13:58;2.80;;;1.77;;
3167;SDS011;37221;51.548;6.984;2022-07-06T02:16:24;1.77;;;1.63;;
3167;SDS011;37221;51.548;6.984;2022-07-06T02:18:50;2.30;;;2.00;;
3167;SDS011;37221;51.548;6.984;2022-07-06T02:21:15;1.93;;;1.73;;
3167;SDS011;37221;51.548;6.984;2022-07-06T02:23:41;3.40;;;1.63;;
3167;SDS011;37221;51.548;6.984;2022-07-06T02:26:07;4.90;;;2.63;;
3167;SDS011;37221;51.548;6.984;2022-07-06T02:28:32;2.00;;;1.57;;
3167;SDS011;37221;51.548;6.984;2022-07-06T02:30:58;3.50;;;2.07;;
3167;SDS011;37221;51.548;6.984;2022-07-06T02:33:24;2.07;;;1.97;;
3167;SDS011;37221;51.548;6.984;2022-07-06T02:35:49;2.70;;;2.30;;
3167;SDS011;37221;51.548;6.984;2022-07-06T02:38:15;2.57;;;1.67;;
3167;SDS011;37221;51.548;6.984;2022-07-06T02:40:41;2.07;;;1.87;;
3167;SDS011;37221;51.548;6.984;2022-07-06T02:43:07;3.37;;;1.97;;
3167;SDS011;37221;51.548;6.984;2022-07-06T02:45:33;2.50;;;2.10;;
3167;SDS011;37221;51.548;6.984;2022-07-06T02:47:59;2.20;;;1.87;;
3167;SDS011;37221;51.548;6.984;2022-07-06T02:50:25;2.90;;;2.30;;
3167;SDS011;37221;51.548;6.984;2022-07-06T02:52:51;4.53;;;2.40;;
3167;SDS011;37221;51.548;6.984;2022-07-06T02:55:17;2.73;;;2.23;;
3167;SDS011;37221;51.548;6.984;2022-07-06T02:57:43;3.10;;;1.93;;
3167;SDS011;37221;51.548;6.984;2022-07-06T03:00:09;3.83;;;2.77;;
3167;SDS011;37221;51.548;6.984;2022-07-06T03:02:36;3.93;;;2.77;;
3167;SDS011;37221;51.548;6.984;2022-07-06T03:05:02;2.60;;;2.20;;
3167;SDS011;37221;51.548;6.984;2022-07-06T03:07:29;3.53;;;3.20;;
3167;SDS011;37221;51.548;6.984;2022-07-06T03:09:54;3.50;;;3.10;;
3167;SDS011;37221;51.548;6.984;2022-07-06T03:12:20;3.50;;;3.17;;
3167;SDS011;37221;51.548;6.984;2022-07-06T03:14:46;4.77;;;2.80;;
3167;SDS011;37221;51.548;6.984;2022-07-06T03:17:12;3.10;;;2.57;;
3167;SDS011;37221;51.548;6.984;2022-07-06T03:19:37;2.53;;;1.80;;
3167;SDS011;37221;51.548;6.984;2022-07-06T03:22:03;5.10;;;2.60;;
3167;SDS011;37221;51.548;6.984;2022-07-06T03:24:29;4.50;;;3.33;;
3167;SDS011;37221;51.548;6.984;2022-07-06T03:26:55;4.70;;;2.80;;
3167;SDS011;37221;51.548;6.984;2022-07-06T03:29:21;3.47;;;2.70;;
3167;SDS011;37221;51.548;6.984;2022-07-06T03:31:47;5.47;;;3.50;;
3167;SDS011;37221;51.548;6.984;2022-07-06T03:34:13;4.50;;;3.43;;
3167;SDS011;37221;51.548;6.984;2022-07-06T03:36:39;4.20;;;3.07;;
3167;SDS011;37221;51.548;6.984;2022-07-06T03:39:05;4.50;;;3.20;;
3167;SDS011;37221;51.548;6.984;2022-07-06T03:41:31;5.07;;;2.50;;
3167;SDS011;37221;51.548;6.984;2022-07-06T03:43:57;4.03;;;2.63;;
3167;SDS011;37221;51.548;6.984;2022-07-06T03:46:23;4.10;;;3.07;;
3167;SDS011;37221;51.548;6.984;2022-07-06T03:48:50;3.60;;;2.90;;
3167;SDS011;37221;51.548;6.984;2022-07-06T03:51:15;5.97;;;3.23;;
3167;SDS011;37221;51.548;6.984;2022-07-06T03:53:41;5.47;;;4.07;;
3167;SDS011;37221;51.548;6.984;2022-07-06T03:56:07;6.17;;;3.90;;
3167;SDS011;37221;51.548;6.984;2022-07-06T03:58:52;5.17;;;3.10;;
3167;SDS011;37221;51.548;6.984;2022-07-06T04:01:18;6.60;;;3.53;;
3167;SDS011;37221;51.548;6.984;2022-07-06T04:06:24;7.47;;;5.13;;
3167;SDS011;37221;51.548;6.984;2022-07-06T04:08:51;4.60;;;2.93;;
3167;SDS011;37221;51.548;6.984;2022-07-06T04:11:17;3.63;;;2.90;;
3167;SDS011;37221;51.548;6.984;2022-07-06T04:13:43;3.67;;;2.50;;
3167;SDS011;37221;51.548;6.984;2022-07-06T04:16:08;3.70;;;2.77;;
3167;SDS011;37221;51.548;6.984;2022-07-06T04:18:34;6.00;;;3.63;;
3167;SDS011;37221;51.548;6.984;2022-07-06T04:21:00;3.07;;;2.80;;
3167;SDS011;37221;51.548;6.984;2022-07-06T04:23:27;2.87;;;2.10;;
3167;SDS011;37221;51.548;6.984;2022-07-06T04:25:53;4.33;;;2.90;;
3167;SDS011;37221;51.548;6.984;2022-07-06T04:28:19;4.13;;;3.10;;
3167;SDS011;37221;51.548;6.984;2022-07-06T04:30:44;4.67;;;3.10;;
3167;SDS011;37221;51.548;6.984;2022-07-06T04:33:10;2.90;;;2.07;;
3167;SDS011;37221;51.548;6.984;2022-07-06T04:35:36;4.37;;;2.00;;
3167;SDS011;37221;51.548;6.984;2022-07-06T04:38:02;3.10;;;2.37;;
3167;SDS011;37221;51.548;6.984;2022-07-06T04:40:27;3.43;;;2.50;;
3167;SDS011;37221;51.548;6.984;2022-07-06T04:42:53;3.80;;;2.53;;
3167;SDS011;37221;51.548;6.984;2022-07-06T04:45:19;4.17;;;2.63;;
3167;SDS011;37221;51.548;6.984;2022-07-06T04:47:53;4.00;;;2.30;;
3167;SDS011;37221;51.548;6.984;2022-07-06T04:50:19;2.90;;;1.90;;
3167;SDS011;37221;51.548;6.984;2022-07-06T04:56:44;2.77;;;1.93;;
3167;SDS011;37221;51.548;6.984;2022-07-06T04:59:11;5.60;;;2.80;;
3167;SDS011;37221;51.548;6.984;2022-07-06T05:01:37;3.33;;;2.20;;
3167;SDS011;37221;51.548;6.984;2022-07-06T05:06:47;3.30;;;2.23;;
3167;SDS011;37221;51.548;6.984;2022-07-06T05:09:13;3.80;;;2.40;;
3167;SDS011;37221;51.548;6.984;2022-07-06T05:11:39;2.70;;;2.07;;
3167;SDS011;37221;51.548;6.984;2022-07-06T05:14:05;3.40;;;1.73;;
3167;SDS011;37221;51.548;6.984;2022-07-06T05:16:31;1.83;;;1.73;;
3167;SDS011;37221;51.548;6.984;2022-07-06T05:18:58;5.90;;;2.23;;
3167;SDS011;37221;51.548;6.984;2022-07-06T05:21:24;3.83;;;2.27;;
3167;SDS011;37221;51.548;6.984;2022-07-06T05:23:50;2.93;;;2.13;;
3167;SDS011;37221;51.548;6.984;2022-07-06T05:26:16;2.43;;;2.10;;
3167;SDS011;37221;51.548;6.984;2022-07-06T05:28:42;1.60;;;1.50;;
3167;SDS011;37221;51.548;6.984;2022-07-06T05:31:08;2.40;;;1.60;;
3167;SDS011;37221;51.548;6.984;2022-07-06T05:33:33;3.53;;;2.00;;
3167;SDS011;37221;51.548;6.984;2022-07-06T05:35:59;4.13;;;2.30;;
3167;SDS011;37221;51.548;6.984;2022-07-06T05:38:25;1.43;;;1.33;;
3167;SDS011;37221;51.548;6.984;2022-07-06T05:40:51;1.93;;;1.83;;
3167;SDS011;37221;51.548;6.984;2022-07-06T05:43:17;2.10;;;1.50;;
3167;SDS011;37221;51.548;6.984;2022-07-06T05:45:43;2.73;;;1.30;;
3167;SDS011;37221;51.548;6.984;2022-07-06T05:48:08;1.70;;;1.57;;
3167;SDS011;37221;51.548;6.984;2022-07-06T05:50:53;3.63;;;2.20;;
3167;SDS011;37221;51.548;6.984;2022-07-06T05:53:19;2.90;;;1.43;;
3167;SDS011;37221;51.548;6.984;2022-07-06T05:55:45;3.40;;;1.70;;
3167;SDS011;37221;51.548;6.984;2022-07-06T05:58:12;2.70;;;1.60;;
3167;SDS011;37221;51.548;6.984;2022-07-06T06:00:38;6.13;;;1.50;;
3167;SDS011;37221;51.548;6.984;2022-07-06T06:03:04;4.53;;;0.83;;
3167;SDS011;37221;51.548;6.984;2022-07-06T06:05:30;1.33;;;1.17;;
3167;SDS011;37221;51.548;6.984;2022-07-06T06:07:55;2.60;;;2.27;;
3167;SDS011;37221;51.548;6.984;2022-07-06T06:10:21;1.53;;;1.43;;
3167;SDS011;37221;51.548;6.984;2022-07-06T06:12:48;3.33;;;1.77;;
3167;SDS011;37221;51.548;6.984;2022-07-06T06:15:14;1.67;;;1.57;;
3167;SDS011;37221;51.548;6.984;2022-07-06T06:17:40;2.70;;;1.30;;
3167;SDS011;37221;51.548;6.984;2022-07-06T06:20:07;2.87;;;1.63;;
3167;SDS011;37221;51.548;6.984;2022-07-06T06:22:48;2.57;;;1.23;;
3167;SDS011;37221;51.548;6.984;2022-07-06T06:25:27;3.50;;;1.83;;
3167;SDS011;37221;51.548;6.984;2022-07-06T06:28:03;5.27;;;1.60;;
3167;SDS011;37221;51.548;6.984;2022-07-06T06:30:32;3.20;;;0.90;;
3167;SDS011;37221;51.548;6.984;2022-07-06T06:33:08;3.93;;;1.33;;
3167;SDS011;37221;51.548;6.984;2022-07-06T06:35:45;2.30;;;1.60;;
3167;SDS011;37221;51.548;6.984;2022-07-06T06:38:15;2.93;;;1.40;;
3167;SDS011;37221;51.548;6.984;2022-07-06T06:40:42;3.10;;;1.70;;
3167;SDS011;37221;51.548;6.984;2022-07-06T06:43:08;2.23;;;1.30;;
3167;SDS011;37221;51.548;6.984;2022-07-06T06:45:34;1.30;;;1.00;;
3167;SDS011;37221;51.548;6.984;2022-07-06T06:48:00;3.90;;;1.17;;
3167;SDS011;37221;51.548;6.984;2022-07-06T06:50:26;3.43;;;1.20;;
3167;SDS011;37221;51.548;6.984;2022-07-06T06:52:53;4.33;;;1.10;;
3167;SDS011;37221;51.548;6.984;2022-07-06T06:55:18;2.73;;;1.20;;
3167;SDS011;37221;51.548;6.984;2022-07-06T06:57:44;1.70;;;1.33;;
3167;SDS011;37221;51.548;6.984;2022-07-06T07:00:11;1.53;;;1.17;;
3167;SDS011;37221;51.548;6.984;2022-07-06T07:02:37;1.40;;;1.20;;
3167;SDS011;37221;51.548;6.984;2022-07-06T07:05:04;2.60;;;0.80;;
3167;SDS011;37221;51.548;6.984;2022-07-06T07:07:31;3.20;;;1.17;;
3167;SDS011;37221;51.548;6.984;2022-07-06T07:09:58;2.40;;;1.20;;
3167;SDS011;37221;51.548;6.984;2022-07-06T07:12:24;2.40;;;1.20;;
3167;SDS011;37221;51.548;6.984;2022-07-06T07:14:49;1.07;;;0.97;;
3167;SDS011;37221;51.548;6.984;2022-07-06T07:17:15;2.10;;;1.20;;
3167;SDS011;37221;51.548;6.984;2022-07-06T07:19:41;2.00;;;1.33;;
3167;SDS011;37221;51.548;6.984;2022-07-06T07:22:07;1.20;;;0.93;;
3167;SDS011;37221;51.548;6.984;2022-07-06T07:24:33;4.63;;;1.97;;
3167;SDS011;37221;51.548;6.984;2022-07-06T07:26:59;1.87;;;1.20;;
3167;SDS011;37221;51.548;6.984;2022-07-06T07:29:25;3.80;;;1.57;;
3167;SDS011;37221;51.548;6.984;2022-07-06T07:31:51;2.40;;;1.10;;
3167;SDS011;37221;51.548;6.984;2022-07-06T07:34:17;1.10;;;1.00;;
3167;SDS011;37221;51.548;6.984;2022-07-06T07:36:43;2.13;;;1.33;;
3167;SDS011;37221;51.548;6.984;2022-07-06T07:39:09;3.27;;;1.27;;
3167;SDS011;37221;51.548;6.984;2022-07-06T07:41:34;2.93;;;1.10;;
3167;SDS011;37221;51.548;6.984;2022-07-06T07:44:00;1.20;;;1.07;;
3167;SDS011;37221;51.548;6.984;2022-07-06T07:46:26;3.70;;;1.13;;
3167;SDS011;37221;51.548;6.984;2022-07-06T07:48:51;1.07;;;0.87;;
3167;SDS011;37221;51.548;6.984;2022-07-06T07:51:17;1.63;;;1.23;;
3167;SDS011;37221;51.548;6.984;2022-07-06T07:53:44;2.07;;;1.00;;
3167;SDS011;37221;51.548;6.984;2022-07-06T07:56:10;3.83;;;0.90;;
3167;SDS011;37221;51.548;6.984;2022-07-06T07:58:36;0.70;;;0.67;;
3167;SDS011;37221;51.548;6.984;2022-07-06T08:01:02;1.30;;;1.03;;
3167;SDS011;37221;51.548;6.984;2022-07-06T08:03:29;1.20;;;0.70;;
3167;SDS011;37221;51.548;6.984;2022-07-06T08:05:56;0.90;;;0.77;;
3167;SDS011;37221;51.548;6.984;2022-07-06T08:08:23;1.40;;;1.10;;
3167;SDS011;37221;51.548;6.984;2022-07-06T08:10:49;1.10;;;0.70;;
3167;SDS011;37221;51.548;6.984;2022-07-06T08:13:15;1.37;;;0.60;;
3167;SDS011;37221;51.548;6.984;2022-07-06T08:15:41;0.70;;;0.60;;
3167;SDS011;37221;51.548;6.984;2022-07-06T08:18:08;1.60;;;0.80;;
3167;SDS011;37221;51.548;6.984;2022-07-06T08:20:34;2.83;;;0.73;;
3167;SDS011;37221;51.548;6.984;2022-07-06T08:23:02;1.60;;;0.70;;
3167;SDS011;37221;51.548;6.984;2022-07-06T08:25:29;2.40;;;1.10;;
3167;SDS011;37221;51.548;6.984;2022-07-06T08:27:56;1.47;;;1.13;;
3167;SDS011;37221;51.548;6.984;2022-07-06T08:30:22;2.37;;;0.90;;
3167;SDS011;37221;51.548;6.984;2022-07-06T08:32:48;1.03;;;0.80;;
3167;SDS011;37221;51.548;6.984;2022-07-06T08:35:14;4.97;;;0.87;;
3167;SDS011;37221;51.548;6.984;2022-07-06T08:37:40;3.57;;;0.80;;
3167;SDS011;37221;51.548;6.984;2022-07-06T08:40:05;1.80;;;1.13;;
3167;SDS011;37221;51.548;6.984;2022-07-06T08:42:33;6.90;;;1.00;;
3167;SDS011;37221;51.548;6.984;2022-07-06T08:45:02;1.90;;;0.80;;
3167;SDS011;37221;51.548;6.984;2022-07-06T08:47:32;4.17;;;1.00;;
3167;SDS011;37221;51.548;6.984;2022-07-06T08:50:02;1.47;;;0.70;;
3167;SDS011;37221;51.548;6.984;2022-07-06T08:52:30;7.03;;;0.93;;
3167;SDS011;37221;51.548;6.984;2022-07-06T08:54:56;2.37;;;0.93;;
3167;SDS011;37221;51.548;6.984;2022-07-06T08:57:24;1.87;;;0.70;;
3167;SDS011;37221;51.548;6.984;2022-07-06T08:59:51;1.33;;;0.80;;
3167;SDS011;37221;51.548;6.984;2022-07-06T09:02:17;3.73;;;1.20;;
3167;SDS011;37221;51.548;6.984;2022-07-06T09:04:48;1.40;;;1.00;;
3167;SDS011;37221;51.548;6.984;2022-07-06T09:07:25;0.87;;;0.80;;
3167;SDS011;37221;51.548;6.984;2022-07-06T09:09:54;0.93;;;0.70;;
3167;SDS011;37221;51.548;6.984;2022-07-06T09:12:26;0.77;;;0.70;;
3167;SDS011;37221;51.548;6.984;2022-07-06T09:14:55;1.43;;;0.93;;
3167;SDS011;37221;51.548;6.984;2022-07-06T09:17:26;0.80;;;0.70;;
3167;SDS011;37221;51.548;6.984;2022-07-06T09:19:54;1.30;;;1.20;;
3167;SDS011;37221;51.548;6.984;2022-07-06T09:22:29;1.27;;;0.70;;
3167;SDS011;37221;51.548;6.984;2022-07-06T09:25:04;2.57;;;1.27;;
3167;SDS011;37221;51.548;6.984;2022-07-06T09:27:40;2.60;;;1.20;;
3167;SDS011;37221;51.548;6.984;2022-07-06T09:30:14;0.87;;;0.63;;
3167;SDS011;37221;51.548;6.984;2022-07-06T09:32:43;0.80;;;0.77;;
3167;SDS011;37221;51.548;6.984;2022-07-06T09:35:26;1.37;;;0.83;;
3167;SDS011;37221;51.548;6.984;2022-07-06T09:38:14;3.73;;;0.77;;
3167;SDS011;37221;51.548;6.984;2022-07-06T09:40:44;2.87;;;0.83;;
3167;SDS011;37221;51.548;6.984;2022-07-06T09:43:12;2.50;;;1.00;;
3167;SDS011;37221;51.548;6.984;2022-07-06T09:45:41;0.90;;;0.60;;
3167;SDS011;37221;51.548;6.984;2022-07-06T09:48:19;3.03;;;0.60;;
3167;SDS011;37221;51.548;6.984;2022-07-06T09:53:19;2.40;;;0.70;;
3167;SDS011;37221;51.548;6.984;2022-07-06T09:55:52;1.33;;;0.97;;
3167;SDS011;37221;51.548;6.984;2022-07-06T09:58:23;2.87;;;0.80;;
3167;SDS011;37221;51.548;6.984;2022-07-06T10:00:49;1.47;;;0.90;;
3167;SDS011;37221;51.548;6.984;2022-07-06T10:03:16;1.87;;;1.00;;
3167;SDS011;37221;51.548;6.984;2022-07-06T10:05:44;0.97;;;0.80;;
3167;SDS011;37221;51.548;6.984;2022-07-06T10:08:13;1.97;;;0.90;;
3167;SDS011;37221;51.548;6.984;2022-07-06T10:10:41;3.23;;;0.73;;
3167;SDS011;37221;51.548;6.984;2022-07-06T10:13:09;2.50;;;1.20;;
3167;SDS011;37221;51.548;6.984;2022-07-06T10:15:39;2.90;;;1.20;;
3167;SDS011;37221;51.548;6.984;2022-07-06T10:18:06;0.90;;;0.70;;
3167;SDS011;37221;51.548;6.984;2022-07-06T10:24:34;1.50;;;0.87;;
3167;SDS011;37221;51.548;6.984;2022-07-06T10:27:08;1.63;;;0.87;;
3167;SDS011;37221;51.548;6.984;2022-07-06T10:29:36;1.10;;;0.90;;
3167;SDS011;37221;51.548;6.984;2022-07-06T10:32:02;1.27;;;0.90;;
3167;SDS011;37221;51.548;6.984;2022-07-06T10:34:30;2.63;;;1.20;;
3167;SDS011;37221;51.548;6.984;2022-07-06T10:36:56;1.40;;;0.90;;
3167;SDS011;37221;51.548;6.984;2022-07-06T10:39:32;1.73;;;0.90;;
3167;SDS011;37221;51.548;6.984;2022-07-06T10:42:40;5.00;;;1.17;;
3167;SDS011;37221;51.548;6.984;2022-07-06T10:50:41;2.40;;;1.00;;
3167;SDS011;37221;51.548;6.984;2022-07-06T10:53:22;0.60;;;0.60;;
3167;SDS011;37221;51.548;6.984;2022-07-06T10:55:55;2.00;;;0.87;;
3167;SDS011;37221;51.548;6.984;2022-07-06T11:01:18;6.27;;;1.20;;
3167;SDS011;37221;51.548;6.984;2022-07-06T11:03:47;2.93;;;1.30;;
3167;SDS011;37221;51.548;6.984;2022-07-06T11:06:35;1.27;;;0.73;;
3167;SDS011;37221;51.548;6.984;2022-07-06T11:14:01;1.37;;;1.03;;
3167;SDS011;37221;51.548;6.984;2022-07-06T11:19:13;3.83;;;1.30;;
3167;SDS011;37221;51.548;6.984;2022-07-06T11:21:47;1.43;;;0.80;;
3167;SDS011;37221;51.548;6.984;2022-07-06T11:24:22;3.17;;;1.47;;
3167;SDS011;37221;51.548;6.984;2022-07-06T11:26:56;2.77;;;0.90;;
3167;SDS011;37221;51.548;6.984;2022-07-06T11:29:24;1.93;;;1.03;;
3167;SDS011;37221;51.548;6.984;2022-07-06T11:31:54;0.83;;;0.77;;
3167;SDS011;37221;51.548;6.984;2022-07-06T11:34:29;1.60;;;1.50;;
3167;SDS011;37221;51.548;6.984;2022-07-06T11:37:03;2.63;;;1.13;;
3167;SDS011;37221;51.548;6.984;2022-07-06T11:39:35;1.90;;;0.70;;
3167;SDS011;37221;51.548;6.984;2022-07-06T11:42:07;6.73;;;1.20;;
3167;SDS011;37221;51.548;6.984;2022-07-06T11:44:36;4.60;;;1.27;;
3167;SDS011;37221;51.548;6.984;2022-07-06T11:47:04;2.50;;;1.13;;
3167;SDS011;37221;51.548;6.984;2022-07-06T11:49:32;4.17;;;0.90;;
3167;SDS011;37221;51.548;6.984;2022-07-06T11:52:11;2.40;;;0.80;;
3167;SDS011;37221;51.548;6.984;2022-07-06T11:54:39;2.23;;;1.20;;
3167;SDS011;37221;51.548;6.984;2022-07-06T11:57:10;1.57;;;0.90;;
3167;SDS011;37221;51.548;6.984;2022-07-06T11:59:38;2.60;;;0.70;;
3167;SDS011;37221;51.548;6.984;2022-07-06T12:02:08;2.23;;;1.23;;
3167;SDS011;37221;51.548;6.984;2022-07-06T12:04:41;2.47;;;1.37;;
3167;SDS011;37221;51.548;6.984;2022-07-06T12:07:11;1.70;;;1.20;;
3167;SDS011;37221;51.548;6.984;2022-07-06T12:09:43;2.70;;;1.10;;
3167;SDS011;37221;51.548;6.984;2022-07-06T12:12:12;3.20;;;1.00;;
3167;SDS011;37221;51.548;6.984;2022-07-06T12:14:39;1.80;;;1.07;;
3167;SDS011;37221;51.548;6.984;2022-07-06T12:17:18;2.00;;;1.17;;
3167;SDS011;37221;51.548;6.984;2022-07-06T12:19:43;2.70;;;1.00;;
3167;SDS011;37221;51.548;6.984;2022-07-06T12:22:09;4.50;;;1.10;;
3167;SDS011;37221;51.548;6.984;2022-07-06T12:24:36;1.53;;;1.20;;
3167;SDS011;37221;51.548;6.984;2022-07-06T12:27:10;1.30;;;1.20;;
3167;SDS011;37221;51.548;6.984;2022-07-06T12:29:45;1.27;;;1.17;;
3167;SDS011;37221;51.548;6.984;2022-07-06T12:32:17;4.30;;;1.23;;
3167;SDS011;37221;51.548;6.984;2022-07-06T12:35:05;2.90;;;1.10;;
3167;SDS011;37221;51.548;6.984;2022-07-06T12:37:33;1.90;;;1.23;;
3167;SDS011;37221;51.548;6.984;2022-07-06T12:39:59;2.30;;;1.00;;
3167;SDS011;37221;51.548;6.984;2022-07-06T12:42:26;2.03;;;1.03;;
3167;SDS011;37221;51.548;6.984;2022-07-06T12:44:53;3.60;;;1.20;;
3167;SDS011;37221;51.548;6.984;2022-07-06T12:47:20;1.87;;;1.00;;
3167;SDS011;37221;51.548;6.984;2022-07-06T12:50:06;2.43;;;0.90;;
3167;SDS011;37221;51.548;6.984;2022-07-06T12:52:36;1.47;;;0.83;;
3167;SDS011;37221;51.548;6.984;2022-07-06T12:55:03;1.27;;;0.80;;
3167;SDS011;37221;51.548;6.984;2022-07-06T12:57:46;1.03;;;0.90;;
3167;SDS011;37221;51.548;6.984;2022-07-06T13:00:14;0.60;;;0.53;;
3167;SDS011;37221;51.548;6.984;2022-07-06T13:02:43;3.00;;;0.80;;
3167;SDS011;37221;51.548;6.984;2022-07-06T13:05:14;2.70;;;1.03;;
3167;SDS011;37221;51.548;6.984;2022-07-06T13:07:48;2.83;;;1.30;;
3167;SDS011;37221;51.548;6.984;2022-07-06T13:10:14;0.83;;;0.80;;
3167;SDS011;37221;51.548;6.984;2022-07-06T13:12:42;1.03;;;0.90;;
3167;SDS011;37221;51.548;6.984;2022-07-06T13:15:09;1.27;;;0.90;;
3167;SDS011;37221;51.548;6.984;2022-07-06T13:17:36;3.63;;;1.03;;
3167;SDS011;37221;51.548;6.984;2022-07-06T13:20:02;2.87;;;0.90;;
3167;SDS011;37221;51.548;6.984;2022-07-06T13:22:34;1.00;;;0.90;;
3167;SDS011;37221;51.548;6.984;2022-07-06T13:25:00;4.33;;;1.33;;
3167;SDS011;37221;51.548;6.984;2022-07-06T13:27:26;0.90;;;0.80;;
3167;SDS011;37221;51.548;6.984;2022-07-06T13:29:52;1.27;;;0.80;;
3167;SDS011;37221;51.548;6.984;2022-07-06T13:32:19;2.10;;;0.87;;
3167;SDS011;37221;51.548;6.984;2022-07-06T13:34:45;1.00;;;0.70;;
3167;SDS011;37221;51.548;6.984;2022-07-06T13:37:11;1.50;;;1.10;;
3167;SDS011;37221;51.548;6.984;2022-07-06T13:39:36;1.93;;;0.90;;
3167;SDS011;37221;51.548;6.984;2022-07-06T13:42:02;3.07;;;0.90;;
3167;SDS011;37221;51.548;6.984;2022-07-06T13:44:32;3.43;;;1.30;;
3167;SDS011;37221;51.548;6.984;2022-07-06T13:46:59;1.23;;;0.90;;
3167;SDS011;37221;51.548;6.984;2022-07-06T13:49:25;2.90;;;0.77;;
3167;SDS011;37221;51.548;6.984;2022-07-06T13:51:50;1.67;;;0.80;;
3167;SDS011;37221;51.548;6.984;2022-07-06T13:54:16;2.40;;;1.00;;
3167;SDS011;37221;51.548;6.984;2022-07-06T13:56:42;1.10;;;1.00;;
3167;SDS011;37221;51.548;6.984;2022-07-06T13:59:07;1.77;;;1.03;;
3167;SDS011;37221;51.548;6.984;2022-07-06T14:01:33;2.33;;;1.00;;
3167;SDS011;37221;51.548;6.984;2022-07-06T14:03:59;2.20;;;1.37;;
3167;SDS011;37221;51.548;6.984;2022-07-06T14:06:25;3.10;;;1.00;;
3167;SDS011;37221;51.548;6.984;2022-07-06T14:08:50;1.10;;;1.00;;
3167;SDS011;37221;51.548;6.984;2022-07-06T14:11:16;1.97;;;0.97;;
3167;SDS011;37221;51.548;6.984;2022-07-06T14:13:43;0.77;;;0.73;;
3167;SDS011;37221;51.548;6.984;2022-07-06T14:16:09;5.03;;;0.90;;
3167;SDS011;37221;51.548;6.984;2022-07-06T14:18:35;1.83;;;1.43;;
3167;SDS011;37221;51.548;6.984;2022-07-06T14:21:01;0.90;;;0.80;;
3167;SDS011;37221;51.548;6.984;2022-07-06T14:23:29;1.37;;;0.90;;
3167;SDS011;37221;51.548;6.984;2022-07-06T14:25:56;3.37;;;1.13;;
3167;SDS011;37221;51.548;6.984;2022-07-06T14:28:22;1.03;;;0.80;;
3167;SDS011;37221;51.548;6.984;2022-07-06T14:30:48;1.00;;;0.90;;
3167;SDS011;37221;51.548;6.984;2022-07-06T14:33:14;1.23;;;0.80;;
3167;SDS011;37221;51.548;6.984;2022-07-06T14:35:43;3.33;;;0.97;;
3167;SDS011;37221;51.548;6.984;2022-07-06T14:38:19;1.27;;;1.10;;
3167;SDS011;37221;51.548;6.984;2022-07-06T14:40:46;1.10;;;0.83;;
3167;SDS011;37221;51.548;6.984;2022-07-06T14:43:14;1.40;;;1.00;;
3167;SDS011;37221;51.548;6.984;2022-07-06T14:45:40;1.10;;;1.00;;
3167;SDS011;37221;51.548;6.984;2022-07-06T14:48:13;1.20;;;1.03;;
3167;SDS011;37221;51.548;6.984;2022-07-06T14:50:39;2.60;;;1.50;;
3167;SDS011;37221;51.548;6.984;2022-07-06T14:53:04;1.27;;;1.17;;
3167;SDS011;37221;51.548;6.984;2022-07-06T14:55:31;1.10;;;0.97;;
3167;SDS011;37221;51.548;6.984;2022-07-06T14:57:57;5.17;;;1.77;;
3167;SDS011;37221;51.548;6.984;2022-07-06T15:00:23;0.87;;;0.80;;
3167;SDS011;37221;51.548;6.984;2022-07-06T15:02:49;1.87;;;0.90;;
3167;SDS011;37221;51.548;6.984;2022-07-06T15:05:15;0.77;;;0.77;;
3167;SDS011;37221;51.548;6.984;2022-07-06T15:07:41;1.10;;;1.00;;
3167;SDS011;37221;51.548;6.984;2022-07-06T15:10:06;1.37;;;1.00;;
3167;SDS011;37221;51.548;6.984;2022-07-06T15:12:34;3.50;;;1.20;;
3167;SDS011;37221;51.548;6.984;2022-07-06T15:14:59;2.43;;;1.40;;
3167;SDS011;37221;51.548;6.984;2022-07-06T15:17:25;1.30;;;0.80;;
3167;SDS011;37221;51.548;6.984;2022-07-06T15:19:52;1.70;;;1.30;;
3167;SDS011;37221;51.548;6.984;2022-07-06T15:22:18;0.77;;;0.77;;
3167;SDS011;37221;51.548;6.984;2022-07-06T15:24:43;0.90;;;0.90;;
3167;SDS011;37221;51.548;6.984;2022-07-06T15:27:09;1.00;;;1.00;;
3167;SDS011;37221;51.548;6.984;2022-07-06T15:29:35;1.47;;;0.97;;
3167;SDS011;37221;51.548;6.984;2022-07-06T15:32:00;1.53;;;1.00;;
3167;SDS011;37221;51.548;6.984;2022-07-06T15:34:27;1.00;;;0.97;;
3167;SDS011;37221;51.548;6.984;2022-07-06T15:36:53;3.27;;;1.17;;
3167;SDS011;37221;51.548;6.984;2022-07-06T15:39:20;2.50;;;0.97;;